createdAt,value
2022-11-16T00:02:22.589Z,17.90
2022-11-16T00:04:54.790Z,20.80
2022-11-16T00:07:24.415Z,19.50
2022-11-16T00:09:53.966Z,20.53
2022-11-16T00:12:23.473Z,19.70
2022-11-16T00:14:54.013Z,19.10
2022-11-16T00:17:24.059Z,19.60
2022-11-16T00:19:56.017Z,21.00
2022-11-16T00:22:25.412Z,21.10
2022-11-16T00:24:54.781Z,19.40
2022-11-16T00:27:24.192Z,22.07
2022-11-16T00:29:53.563Z,21.23
2022-11-16T00:32:23.618Z,22.53
2022-11-16T00:34:53.012Z,20.53
2022-11-16T00:37:24.979Z,21.70
2022-11-16T00:39:54.389Z,21.87
2022-11-16T00:42:23.811Z,21.57
2022-11-16T00:44:53.258Z,20.33
2022-11-16T00:47:22.657Z,21.60
2022-11-16T00:49:52.062Z,21.13
2022-11-16T00:52:21.516Z,22.23
2022-11-16T00:54:53.494Z,21.73
2022-11-16T00:57:22.971Z,21.93
2022-11-16T00:59:52.477Z,22.90
2022-11-16T01:02:21.902Z,22.27
2022-11-16T01:04:51.327Z,23.93
2022-11-16T01:07:20.783Z,21.40
2022-11-16T01:09:52.782Z,21.93
2022-11-16T01:12:22.204Z,21.40
2022-11-16T01:14:51.625Z,21.90
2022-11-16T01:17:21.040Z,20.63
2022-11-16T01:19:50.422Z,21.30
2022-11-16T01:22:19.793Z,22.90
2022-11-16T01:24:49.883Z,22.40
2022-11-16T01:27:21.847Z,20.80
2022-11-16T01:29:51.246Z,20.90
2022-11-16T01:32:20.651Z,20.77
2022-11-16T01:34:50.739Z,22.13
2022-11-16T01:37:20.291Z,21.70
2022-11-16T01:39:51.522Z,21.67
2022-11-16T01:42:25.113Z,22.17
2022-11-16T01:45:08.044Z,21.37
2022-11-16T01:47:37.516Z,22.27
2022-11-16T01:50:11.399Z,21.97
2022-11-16T01:52:43.463Z,22.13
2022-11-16T01:55:13.160Z,22.10
2022-11-16T01:57:46.766Z,22.70
2022-11-16T02:00:17.811Z,23.23
2022-11-16T02:02:47.581Z,21.63
2022-11-16T02:05:20.435Z,37.17
2022-11-16T02:08:13.658Z,39.50
2022-11-16T02:11:04.276Z,24.10
2022-11-16T02:13:44.226Z,23.20
2022-11-16T02:16:22.563Z,26.60
2022-11-16T02:18:56.222Z,27.43
2022-11-16T02:21:38.917Z,27.50
2022-11-16T02:24:24.789Z,23.50
2022-11-16T02:27:09.235Z,22.50
2022-11-16T02:29:42.970Z,21.87
2022-11-16T02:32:15.341Z,22.00
2022-11-16T02:34:47.981Z,23.37
2022-11-16T02:37:19.800Z,22.63
2022-11-16T02:39:52.088Z,23.37
2022-11-16T02:42:25.672Z,23.53
2022-11-16T02:44:58.479Z,22.40
2022-11-16T02:47:29.613Z,25.40
2022-11-16T02:50:02.495Z,23.13
2022-11-16T02:52:32.149Z,22.53
2022-11-16T02:55:01.563Z,24.50
2022-11-16T02:57:47.393Z,25.50
2022-11-16T03:00:23.390Z,24.27
2022-11-16T03:03:11.183Z,25.33
2022-11-16T03:05:43.346Z,21.60
2022-11-16T03:08:19.515Z,23.73
2022-11-16T03:11:04.638Z,23.67
2022-11-16T03:13:36.488Z,23.07
2022-11-16T03:16:11.150Z,22.97
2022-11-16T03:18:41.503Z,23.17
2022-11-16T03:21:16.858Z,24.10
2022-11-16T03:23:48.128Z,23.80
2022-11-16T03:26:20.208Z,24.53
2022-11-16T03:28:54.014Z,22.57
2022-11-16T03:31:31.309Z,22.17
2022-11-16T03:34:03.942Z,23.60
2022-11-16T03:36:35.579Z,23.90
2022-11-16T03:39:08.156Z,24.67
2022-11-16T03:41:38.756Z,21.70
2022-11-16T03:44:08.909Z,22.87
2022-11-16T03:46:41.090Z,22.80
2022-11-16T03:49:10.464Z,22.30
2022-11-16T03:51:40.116Z,22.67
2022-11-16T03:54:09.679Z,23.67
2022-11-16T03:56:39.077Z,23.30
2022-11-16T03:59:08.592Z,22.10
2022-11-16T04:01:43.280Z,23.00
2022-11-16T04:04:28.954Z,23.77
2022-11-16T04:07:10.869Z,58.10
2022-11-16T04:09:52.771Z,43.80
2022-11-16T04:12:34.726Z,72.37
2022-11-16T04:15:16.665Z,55.27
2022-11-16T04:17:58.550Z,39.63
2022-11-16T04:20:42.992Z,21.73
2022-11-16T04:23:27.551Z,26.73
2022-11-16T04:25:56.951Z,28.60
2022-11-16T04:28:27.431Z,21.53
2022-11-16T04:31:11.565Z,21.63
2022-11-16T04:33:53.832Z,21.23
2022-11-16T04:36:39.063Z,21.30
2022-11-16T04:39:08.485Z,22.60
2022-11-16T04:41:50.809Z,23.70
2022-11-16T04:44:20.365Z,22.70
2022-11-16T04:47:02.515Z,22.20
2022-11-16T04:49:31.896Z,24.53
2022-11-16T04:52:03.848Z,21.67
2022-11-16T04:54:33.257Z,23.53
2022-11-16T04:57:02.700Z,21.90
2022-11-16T04:59:32.111Z,24.27
2022-11-16T05:02:13.565Z,22.93
2022-11-16T05:04:44.835Z,23.17
2022-11-16T05:07:17.821Z,23.13
2022-11-16T05:09:48.637Z,23.23
2022-11-16T05:12:21.365Z,24.20
2022-11-16T05:14:50.792Z,23.10
2022-11-16T05:17:20.925Z,23.43
2022-11-16T05:20:03.153Z,24.47
2022-11-16T05:22:35.440Z,21.90
2022-11-16T05:25:05.327Z,22.70
2022-11-16T05:27:34.967Z,22.43
2022-11-16T05:30:04.464Z,23.27
2022-11-16T05:32:34.013Z,23.47
2022-11-16T05:35:03.433Z,23.80
2022-11-16T05:37:35.634Z,22.77
2022-11-16T05:40:05.067Z,21.27
2022-11-16T05:42:34.486Z,22.10
2022-11-16T05:45:03.919Z,23.47
2022-11-16T05:47:33.591Z,22.77
2022-11-16T05:50:03.022Z,21.90
2022-11-16T05:52:34.983Z,20.67
2022-11-16T05:55:04.402Z,23.40
2022-11-16T05:57:33.820Z,22.70
2022-11-16T06:00:03.232Z,22.93
2022-11-16T06:02:32.617Z,21.80
2022-11-16T06:05:02.166Z,21.70
2022-11-16T06:07:31.649Z,22.43
2022-11-16T06:10:03.679Z,22.30
2022-11-16T06:12:33.082Z,22.87
2022-11-16T06:15:02.520Z,21.77
2022-11-16T06:17:33.841Z,21.37
2022-11-16T06:20:03.289Z,24.37
2022-11-16T06:22:32.690Z,20.93
2022-11-16T06:25:05.004Z,20.03
2022-11-16T06:27:34.431Z,20.83
2022-11-16T06:30:03.864Z,21.60
2022-11-16T06:32:33.274Z,23.03
2022-11-16T06:35:02.706Z,22.40
2022-11-16T06:37:32.321Z,21.73
2022-11-16T06:40:04.419Z,21.87
2022-11-16T06:42:33.835Z,22.40
2022-11-16T06:45:03.307Z,22.30
2022-11-16T06:47:32.684Z,22.30
2022-11-16T06:50:02.111Z,23.27
2022-11-16T06:52:31.772Z,23.10
2022-11-16T06:55:03.740Z,22.70
2022-11-16T06:57:33.471Z,23.30
2022-11-16T07:00:02.856Z,22.03
2022-11-16T07:02:32.314Z,22.67
2022-11-16T07:05:03.692Z,23.30
2022-11-16T07:07:33.673Z,22.23
2022-11-16T07:10:05.951Z,23.17
2022-11-16T07:12:35.401Z,25.00
2022-11-16T07:15:04.955Z,28.67
2022-11-16T07:17:35.332Z,23.20
2022-11-16T07:20:04.824Z,21.30
2022-11-16T07:22:35.547Z,26.13
2022-11-16T07:25:08.473Z,21.03
2022-11-16T07:27:37.899Z,20.20
2022-11-16T07:30:08.470Z,19.67
2022-11-16T07:32:40.173Z,21.70
2022-11-16T07:35:10.448Z,22.00
2022-11-16T07:37:39.836Z,21.30
2022-11-16T07:40:13.078Z,20.83
2022-11-16T07:42:43.678Z,22.77
2022-11-16T07:45:13.610Z,21.77
2022-11-16T07:47:43.042Z,21.23
2022-11-16T07:50:13.593Z,23.00
2022-11-16T07:52:46.577Z,22.73
2022-11-16T07:55:18.785Z,23.50
2022-11-16T07:57:53.115Z,23.57
2022-11-16T08:00:24.591Z,22.57
2022-11-16T08:02:53.960Z,24.30
2022-11-16T08:05:23.360Z,25.10
2022-11-16T08:09:50.456Z,24.60
2022-11-16T08:12:20.273Z,22.47
2022-11-16T08:14:49.754Z,23.30
2022-11-16T08:17:19.228Z,24.60
2022-11-16T08:19:48.708Z,24.43
2022-11-16T08:22:18.219Z,21.87
2022-11-16T08:24:50.369Z,28.80
2022-11-16T08:27:19.812Z,36.33
2022-11-16T08:29:49.417Z,34.07
2022-11-16T08:32:18.868Z,27.97
2022-11-16T08:34:48.279Z,24.53
2022-11-16T08:37:17.733Z,22.80
2022-11-16T08:39:49.870Z,23.10
2022-11-16T08:42:19.346Z,23.30
2022-11-16T08:44:48.802Z,23.30
2022-11-16T08:47:20.841Z,23.67
2022-11-16T08:49:50.268Z,43.77
2022-11-16T08:52:19.964Z,26.03
2022-11-16T08:54:52.012Z,40.73
2022-11-16T08:57:21.440Z,48.40
2022-11-16T08:59:50.799Z,47.43
2022-11-16T09:02:25.525Z,25.40
2022-11-16T09:04:55.506Z,20.83
2022-11-16T09:07:24.990Z,24.27
2022-11-16T09:09:57.159Z,22.60
2022-11-16T09:12:26.565Z,23.20
2022-11-16T09:14:55.961Z,22.40
2022-11-16T09:17:25.603Z,23.30
2022-11-16T09:19:55.093Z,23.73
2022-11-16T09:22:24.636Z,29.27
2022-11-16T09:24:56.712Z,23.47
2022-11-16T09:27:26.283Z,23.93
2022-11-16T09:29:55.784Z,23.97
2022-11-16T09:32:25.413Z,25.00
2022-11-16T09:34:54.895Z,24.10
2022-11-16T09:37:24.477Z,25.30
2022-11-16T09:39:54.597Z,24.63
2022-11-16T09:42:52.185Z,25.27
2022-11-16T09:45:23.920Z,24.40
2022-11-16T09:47:56.433Z,25.70
2022-11-16T09:50:44.916Z,26.53
2022-11-16T09:53:25.364Z,24.63
2022-11-16T09:55:56.552Z,24.13
2022-11-16T09:58:32.227Z,24.60
2022-11-16T10:01:06.666Z,26.27
2022-11-16T10:03:42.747Z,27.30
2022-11-16T10:06:19.708Z,25.60
2022-11-16T10:08:51.339Z,27.40
2022-11-16T10:11:46.144Z,26.50
2022-11-16T10:14:28.439Z,23.83
2022-11-16T10:17:00.188Z,25.70
2022-11-16T10:19:35.146Z,25.50
2022-11-16T10:22:11.614Z,25.60
2022-11-16T10:24:57.547Z,25.73
2022-11-16T10:27:37.948Z,26.93
2022-11-16T10:30:15.627Z,24.87
2022-11-16T10:32:50.585Z,24.80
2022-11-16T10:35:22.662Z,24.80
2022-11-16T10:37:53.546Z,25.60
2022-11-16T10:40:26.137Z,24.73
2022-11-16T10:43:04.054Z,25.60
2022-11-16T10:45:41.669Z,26.30
2022-11-16T10:48:18.853Z,23.20
2022-11-16T10:50:49.644Z,26.30
2022-11-16T10:53:29.596Z,24.80
2022-11-16T10:56:13.502Z,26.90
2022-11-16T10:58:53.166Z,23.77
2022-11-16T11:01:53.204Z,27.13
2022-11-16T11:04:24.710Z,26.43
2022-11-16T11:06:55.946Z,25.43
2022-11-16T11:09:30.861Z,25.67
2022-11-16T11:12:29.544Z,25.33
2022-11-16T11:15:04.763Z,25.40
2022-11-16T11:17:38.108Z,24.77
2022-11-16T11:20:09.926Z,24.87
2022-11-16T11:22:45.947Z,24.17
2022-11-16T11:25:23.144Z,27.23
2022-11-16T11:27:53.519Z,25.87
2022-11-16T11:30:24.066Z,24.73
2022-11-16T11:32:56.171Z,25.90
2022-11-16T11:35:27.688Z,24.53
2022-11-16T11:38:01.164Z,24.90
2022-11-16T11:40:33.560Z,25.73
2022-11-16T11:43:05.359Z,25.83
2022-11-16T11:45:41.782Z,25.57
2022-11-16T11:48:25.121Z,28.70
2022-11-16T11:51:02.772Z,26.83
2022-11-16T11:53:50.203Z,27.17
2022-11-16T11:56:20.368Z,24.27
2022-11-16T11:58:51.682Z,27.07
2022-11-16T12:01:36.866Z,26.03
2022-11-16T12:04:35.221Z,26.00
2022-11-16T12:07:09.952Z,27.00
2022-11-16T12:09:45.635Z,26.87
2022-11-16T12:12:25.605Z,27.00
2022-11-16T12:15:21.337Z,26.13
2022-11-16T12:17:58.024Z,25.87
2022-11-16T12:20:40.497Z,27.23
2022-11-16T12:23:40.764Z,25.67
2022-11-16T12:26:16.298Z,26.47
2022-11-16T12:28:57.042Z,28.93
2022-11-16T12:31:36.568Z,25.67
2022-11-16T12:34:13.406Z,29.07
2022-11-16T12:36:53.592Z,27.30
2022-11-16T12:39:26.980Z,29.70
2022-11-16T12:42:32.899Z,27.77
2022-11-16T12:45:32.196Z,27.33
2022-11-16T12:48:18.963Z,30.40
2022-11-16T12:50:55.897Z,42.83
2022-11-16T12:53:41.345Z,43.20
2022-11-16T12:56:19.482Z,37.57
2022-11-16T12:59:07.460Z,28.13
2022-11-16T13:01:39.681Z,34.97
2022-11-16T13:04:13.495Z,50.77
2022-11-16T13:06:46.581Z,25.50
2022-11-16T13:09:20.610Z,29.83
2022-11-16T13:11:52.095Z,26.87
2022-11-16T13:14:23.861Z,33.60
2022-11-16T13:16:54.116Z,28.40
2022-11-16T13:19:23.919Z,30.93
2022-11-16T13:21:59.886Z,32.70
2022-11-16T13:24:47.934Z,25.57
2022-11-16T13:27:29.741Z,29.60
2022-11-16T13:30:04.124Z,26.43
2022-11-16T13:32:44.899Z,25.17
2022-11-16T13:35:16.861Z,25.77
2022-11-16T13:37:50.577Z,23.73
2022-11-16T13:40:30.951Z,24.07
2022-11-16T13:43:04.257Z,23.90
2022-11-16T13:45:36.932Z,37.60
2022-11-16T13:48:16.639Z,27.30
2022-11-16T13:50:50.865Z,54.20
2022-11-16T13:56:25.544Z,25.77
2022-11-16T13:58:58.401Z,22.73
2022-11-16T14:01:28.020Z,25.80
2022-11-16T14:04:37.133Z,22.50
2022-11-16T14:07:06.671Z,26.27
2022-11-16T14:09:50.536Z,25.30
2022-11-16T14:13:01.425Z,23.93
2022-11-16T14:15:40.623Z,25.13
2022-11-16T14:18:37.339Z,26.87
2022-11-16T14:21:13.438Z,25.60
2022-11-16T14:24:06.679Z,24.77
2022-11-16T14:26:46.001Z,26.60
2022-11-16T14:29:27.179Z,27.80
2022-11-16T14:32:00.933Z,23.60
2022-11-16T14:34:34.390Z,23.43
2022-11-16T14:37:03.939Z,25.00
2022-11-16T14:39:37.266Z,25.23
2022-11-16T14:42:09.460Z,24.50
2022-11-16T14:44:41.580Z,24.57
2022-11-16T14:47:24.986Z,25.83
2022-11-16T14:49:57.696Z,25.53
2022-11-16T14:52:33.019Z,29.60
2022-11-16T14:55:04.894Z,29.70
2022-11-16T14:57:34.441Z,24.43
2022-11-16T15:00:14.651Z,49.83
2022-11-16T15:02:51.513Z,25.27
2022-11-16T15:05:23.587Z,22.10
2022-11-16T15:07:55.644Z,21.00
2022-11-16T15:10:27.480Z,24.40
2022-11-16T15:12:58.266Z,22.90
2022-11-16T15:15:29.548Z,24.23
2022-11-16T15:18:14.933Z,22.80
2022-11-16T15:20:50.832Z,25.07
2022-11-16T15:23:26.177Z,25.50
2022-11-16T15:26:01.046Z,25.97
2022-11-16T15:28:32.917Z,26.00
2022-11-16T15:31:05.487Z,23.70
2022-11-16T15:33:40.694Z,23.77
2022-11-16T15:36:25.056Z,27.10
2022-11-16T15:38:55.947Z,24.90
2022-11-16T15:41:29.257Z,48.90
2022-11-16T15:44:13.869Z,21.37
2022-11-16T15:46:44.514Z,21.20
2022-11-16T15:49:25.175Z,23.20
2022-11-16T15:51:54.656Z,28.37
2022-11-16T15:54:30.085Z,28.17
2022-11-16T15:57:08.505Z,22.53
2022-11-16T15:59:38.760Z,19.90
2022-11-16T16:02:08.254Z,23.00
2022-11-16T16:04:44.014Z,19.47
2022-11-16T16:07:13.808Z,16.47
2022-11-16T16:09:43.759Z,22.60
2022-11-16T16:12:20.497Z,17.20
2022-11-16T16:14:51.168Z,17.83
2022-11-16T16:17:26.061Z,13.17
2022-11-16T16:20:02.628Z,12.57
2022-11-16T16:22:34.403Z,13.00
2022-11-16T16:25:04.638Z,12.90
2022-11-16T16:27:35.328Z,11.90
2022-11-16T16:30:07.364Z,11.70
2022-11-16T16:32:38.776Z,13.03
2022-11-16T16:35:19.235Z,12.73
2022-11-16T16:37:51.235Z,13.53
2022-11-16T16:40:21.326Z,24.17
2022-11-16T16:42:54.144Z,23.73
2022-11-16T16:45:26.823Z,12.43
2022-11-16T16:47:56.291Z,18.07
2022-11-16T16:50:28.396Z,11.17
2022-11-16T16:52:58.096Z,11.93
2022-11-16T16:55:28.935Z,13.40
2022-11-16T16:57:59.514Z,13.63
2022-11-16T17:00:29.043Z,10.50
2022-11-16T17:02:58.593Z,12.17
2022-11-16T17:05:30.660Z,52.33
2022-11-16T17:08:00.072Z,11.23
2022-11-16T17:10:30.618Z,18.77
2022-11-16T17:13:02.760Z,24.40
2022-11-16T17:15:32.368Z,23.67
2022-11-16T17:18:02.638Z,14.40
2022-11-16T17:20:37.599Z,13.00
2022-11-16T17:23:10.593Z,11.97
2022-11-16T17:25:40.087Z,10.33
2022-11-16T17:28:09.544Z,11.03
2022-11-16T17:30:38.971Z,10.83
2022-11-16T17:33:08.891Z,12.40
2022-11-16T17:35:41.468Z,11.87
2022-11-16T17:38:12.737Z,11.43
2022-11-16T17:40:42.206Z,10.80
2022-11-16T17:43:11.849Z,11.10
2022-11-16T17:45:41.306Z,12.07
2022-11-16T17:48:10.729Z,12.03
2022-11-16T17:50:42.817Z,11.00
2022-11-16T17:53:12.333Z,11.37
2022-11-16T17:55:41.829Z,12.23
2022-11-16T17:58:11.312Z,12.43
2022-11-16T18:00:40.816Z,11.37
2022-11-16T18:03:10.631Z,11.70
2022-11-16T18:05:42.710Z,11.80
2022-11-16T18:08:12.499Z,11.53
2022-11-16T18:10:41.938Z,11.60
2022-11-16T18:13:11.419Z,12.00
2022-11-16T18:15:42.638Z,11.97
2022-11-16T18:18:12.301Z,11.90
2022-11-16T18:20:44.611Z,11.00
2022-11-16T18:23:14.052Z,12.10
2022-11-16T18:25:43.595Z,10.93
2022-11-16T18:28:13.335Z,10.53
2022-11-16T18:30:42.728Z,12.00
2022-11-16T18:33:12.165Z,12.00
2022-11-16T18:35:44.199Z,11.97
2022-11-16T18:38:14.441Z,12.00
2022-11-16T18:40:44.069Z,11.97
2022-11-16T18:43:15.357Z,12.53
2022-11-16T18:45:44.870Z,11.83
2022-11-16T18:48:14.580Z,12.17
2022-11-16T18:50:46.638Z,12.50
2022-11-16T18:53:16.137Z,13.43
2022-11-16T18:55:45.605Z,11.33
2022-11-16T18:58:35.843Z,12.23
2022-11-16T19:01:05.276Z,13.10
2022-11-16T19:03:35.434Z,20.33
2022-11-16T19:06:09.449Z,35.03
2022-11-16T19:08:39.703Z,30.97
2022-11-16T19:11:11.928Z,32.23
2022-11-16T19:13:42.102Z,16.13
2022-11-16T19:16:13.106Z,19.30
2022-11-16T19:18:42.998Z,21.00
2022-11-16T19:21:18.357Z,15.00
2022-11-16T19:23:49.161Z,17.10
2022-11-16T19:26:20.326Z,17.53
2022-11-16T19:28:51.674Z,15.90
2022-11-16T19:31:23.290Z,15.90
2022-11-16T19:33:56.632Z,16.37
2022-11-16T19:36:29.845Z,15.83
2022-11-16T19:38:59.436Z,15.30
2022-11-16T19:41:29.727Z,15.23
2022-11-16T19:44:01.876Z,13.30
2022-11-16T19:46:32.609Z,12.50
2022-11-16T19:49:02.828Z,12.30
2022-11-16T19:51:36.048Z,13.43
2022-11-16T19:54:06.279Z,11.40
2022-11-16T19:56:35.763Z,11.90
2022-11-16T19:59:05.473Z,11.90
2022-11-16T20:01:34.959Z,11.60
2022-11-16T20:04:06.669Z,11.40
2022-11-16T20:06:40.695Z,28.20
2022-11-16T20:09:12.169Z,13.27
2022-11-16T20:11:42.958Z,9.53
2022-11-16T20:14:15.009Z,11.53
2022-11-16T20:16:46.156Z,9.50
2022-11-16T20:19:18.740Z,9.10
2022-11-16T20:21:51.087Z,10.50
2022-11-16T20:24:20.749Z,13.27
2022-11-16T20:26:51.575Z,10.10
2022-11-16T20:29:21.867Z,10.47
2022-11-16T20:31:51.321Z,8.73
2022-11-16T20:34:22.205Z,8.17
2022-11-16T20:36:54.236Z,8.27
2022-11-16T20:39:24.060Z,8.40
2022-11-16T20:41:53.650Z,6.83
2022-11-16T20:44:23.750Z,6.87
2022-11-16T20:46:53.563Z,6.90
2022-11-16T20:49:23.328Z,6.57
2022-11-16T20:51:55.363Z,6.93
2022-11-16T20:54:24.915Z,5.77
2022-11-16T20:56:54.412Z,7.40
2022-11-16T20:59:23.902Z,5.20
2022-11-16T21:01:55.254Z,6.20
2022-11-16T21:04:24.948Z,37.73
2022-11-16T21:06:57.085Z,17.00
2022-11-16T21:09:27.864Z,18.80
2022-11-16T21:12:09.737Z,18.17
2022-11-16T21:14:39.265Z,8.67
2022-11-16T21:17:08.767Z,7.73
2022-11-16T21:19:38.234Z,7.60
2022-11-16T21:22:10.316Z,7.73
2022-11-16T21:24:39.809Z,6.33
2022-11-16T21:27:09.256Z,7.10
2022-11-16T21:29:38.725Z,6.60
2022-11-16T21:32:08.245Z,6.13
2022-11-16T21:34:40.303Z,5.77
2022-11-16T21:37:12.903Z,5.77
2022-11-16T21:39:42.384Z,5.70
2022-11-16T21:42:11.955Z,5.70
2022-11-16T21:44:44.451Z,8.57
2022-11-16T21:47:14.405Z,5.90
2022-11-16T21:50:08.616Z,5.17
2022-11-16T21:52:35.970Z,5.50
2022-11-16T21:55:07.361Z,4.90
2022-11-16T21:57:36.803Z,7.17
2022-11-16T22:00:07.116Z,5.13
2022-11-16T22:02:36.608Z,4.90
2022-11-16T22:05:18.828Z,4.60
2022-11-16T22:07:50.940Z,4.80
2022-11-16T22:10:20.657Z,4.33
2022-11-16T22:12:50.148Z,4.30
2022-11-16T22:15:19.837Z,4.77
2022-11-16T22:17:49.303Z,4.47
2022-11-16T22:20:19.701Z,4.13
2022-11-16T22:22:51.772Z,4.20
2022-11-16T22:25:21.333Z,3.93
2022-11-16T22:28:20.157Z,3.60
2022-11-16T22:30:40.500Z,4.00
2022-11-16T22:33:09.980Z,9.70
2022-11-16T22:35:39.830Z,3.80
2022-11-16T22:38:12.166Z,4.07
2022-11-16T22:40:41.597Z,3.20
2022-11-16T22:43:11.095Z,3.87
2022-11-16T22:45:40.753Z,2.93
2022-11-16T22:48:10.212Z,3.50
2022-11-16T22:50:39.700Z,3.13
2022-11-16T22:53:11.808Z,3.37
2022-11-16T22:55:41.663Z,3.40
2022-11-16T22:58:11.104Z,3.63
2022-11-16T23:00:42.296Z,3.63
2022-11-16T23:03:12.037Z,3.43
2022-11-16T23:05:41.550Z,3.00
2022-11-16T23:08:13.537Z,2.70
2022-11-16T23:10:55.274Z,3.70
2022-11-16T23:13:37.372Z,3.80
2022-11-16T23:16:07.196Z,3.60
2022-11-16T23:18:36.697Z,6.43
2022-11-16T23:21:18.868Z,3.30
2022-11-16T23:24:03.404Z,2.97
2022-11-16T23:26:45.420Z,2.87
2022-11-16T23:29:14.976Z,3.30
2022-11-16T23:31:44.432Z,3.07
2022-11-16T23:34:13.924Z,2.90
2022-11-16T23:36:43.588Z,20.53
2022-11-16T23:39:15.642Z,3.33
2022-11-16T23:41:58.392Z,3.53
2022-11-16T23:44:27.786Z,3.30
2022-11-16T23:46:57.374Z,4.33
2022-11-16T23:49:27.872Z,5.53
2022-11-16T23:51:57.357Z,7.63
2022-11-16T23:54:29.433Z,3.80
2022-11-16T23:56:58.961Z,3.60
2022-11-16T23:59:28.468Z,4.10
